Time;durP1;ratioP1;P1;durP2;ratioP2;P2;SDS_P1;SDS_P2;PMS_P1;PMS_P2;Temp;Humidity;BMP_temperature;BMP_pressure;BME280_temperature;BME280_humidity;BME280_pressure;Samples;Min_cycle;Max_cycle;Signal;HPM_P1;HPM_P2
2023/07/27 00:01:21;;;;;;;19.00;10.00;;;;;;;21.56;100.00;99915.69;107448;1278;59021;-79
2023/07/27 00:03:46;;;;;;;22.60;9.80;;;;;;;21.52;100.00;99912.84;107500;1279;59082;-79
2023/07/27 00:06:12;;;;;;;22.90;10.70;;;;;;;21.49;100.00;99917.20;107072;1278;59124;-79
2023/07/27 00:08:37;;;;;;;17.40;9.80;;;;;;;21.43;100.00;99922.78;107499;1279;59050;-79
2023/07/27 00:11:03;;;;;;;18.30;11.00;;;;;;;21.39;100.00;99926.33;107490;1279;59078;-79
2023/07/27 00:13:28;;;;;;;19.20;10.70;;;;;;;21.31;100.00;99933.07;107474;1279;59094;-79
2023/07/27 00:15:54;;;;;;;21.60;10.40;;;;;;;21.29;100.00;99933.30;106988;1280;59353;-79
2023/07/27 00:18:19;;;;;;;19.60;10.70;;;;;;;21.25;100.00;99938.77;107515;1279;59054;-79
2023/07/27 00:20:45;;;;;;;15.60;10.20;;;;;;;21.22;100.00;99938.98;107241;1278;309140;-79
2023/07/27 00:23:10;;;;;;;17.50;11.30;;;;;;;21.21;100.00;99941.15;107515;1279;59033;-79
2023/07/27 00:25:35;;;;;;;25.70;11.80;;;;;;;21.19;100.00;99938.27;107505;1279;59050;-78
2023/07/27 00:28:01;;;;;;;20.20;11.30;;;;;;;21.15;100.00;99943.40;107508;1279;59063;-79
2023/07/27 00:30:27;;;;;;;20.00;11.10;;;;;;;21.08;100.00;99944.45;107473;1278;59088;-79
2023/07/27 00:32:52;;;;;;;24.50;12.30;;;;;;;21.02;100.00;99945.21;107021;1280;59060;-79
2023/07/27 00:35:17;;;;;;;18.80;11.00;;;;;;;20.98;100.00;99942.03;107497;1279;59027;-79
2023/07/27 00:37:43;;;;;;;24.40;11.20;;;;;;;20.91;100.00;99939.33;107125;1283;59232;-79
2023/07/27 00:40:09;;;;;;;22.10;11.80;;;;;;;20.82;100.00;99939.05;107559;1279;59050;-78
2023/07/27 00:42:34;;;;;;;20.80;11.80;;;;;;;20.74;100.00;99937.96;107503;1279;58995;-79
2023/07/27 00:45:00;;;;;;;23.80;12.20;;;;;;;20.69;100.00;99935.39;107197;1278;59304;-79
2023/07/27 00:47:26;;;;;;;31.00;12.60;;;;;;;20.67;100.00;99933.11;107495;1279;59142;-79
2023/07/27 00:49:51;;;;;;;25.90;13.30;;;;;;;20.61;100.00;99930.90;107504;1279;59125;-79
2023/07/27 00:52:17;;;;;;;23.90;13.40;;;;;;;20.57;100.00;99931.95;107521;1279;59149;-79
2023/07/27 00:54:43;;;;;;;25.90;13.30;;;;;;;20.51;100.00;99931.44;107500;1279;59786;-78
2023/07/27 01:00:30;;;;;;;21.40;13.20;;;;;;;20.38;100.00;99917.63;107518;1279;73492;-78
2023/07/27 01:02:56;;;;;;;25.00;12.60;;;;;;;20.29;100.00;99916.65;107072;1282;59303;-78
2023/07/27 01:05:22;;;;;;;29.20;12.60;;;;;;;20.19;100.00;99915.16;107032;1279;59013;-78
2023/07/27 01:07:48;;;;;;;27.40;12.60;;;;;;;20.11;100.00;99909.21;107499;1279;59042;-78
2023/07/27 01:10:13;;;;;;;21.40;12.00;;;;;;;20.08;100.00;99910.31;107531;1279;59063;-78
2023/07/27 01:12:49;;;;;;;26.00;12.30;;;;;;;20.14;100.00;99917.33;107483;1279;59050;-78
2023/07/27 01:15:17;;;;;;;19.50;11.80;;;;;;;20.14;100.00;99911.45;107477;1279;72356;-78
2023/07/27 01:18:23;;;;;;;20.00;12.10;;;;;;;20.14;100.00;99902.24;107460;1278;61751;-78
2023/07/27 01:21:41;;;;;;;26.90;12.40;;;;;;;20.08;100.00;99897.05;107485;1279;59157;-78
2023/07/27 01:24:25;;;;;;;21.50;11.40;;;;;;;20.03;100.00;99888.14;105723;1295;73365;-77
2023/07/27 01:27:29;;;;;;;23.70;11.90;;;;;;;20.02;100.00;99883.31;105945;1295;73447;-78
2023/07/27 01:30:23;;;;;;;22.40;11.50;;;;;;;19.99;100.00;99881.83;105849;1297;71361;-79
2023/07/27 01:32:57;;;;;;;19.70;11.40;;;;;;;19.98;100.00;99876.45;105589;1300;61871;-79
2023/07/27 01:35:28;;;;;;;18.90;11.20;;;;;;;19.98;100.00;99876.94;105597;1299;61175;-79
2023/07/27 01:37:56;;;;;;;24.60;11.90;;;;;;;20.00;100.00;99875.36;105582;1299;75424;-79
2023/07/27 01:40:22;;;;;;;16.90;10.40;;;;;;;20.03;100.00;99874.63;105586;1299;74490;-79
2023/07/27 01:42:50;;;;;;;19.30;11.10;;;;;;;20.04;100.00;99871.20;105531;1299;73427;-79
2023/07/27 01:45:17;;;;;;;20.80;10.40;;;;;;;20.06;100.00;99865.86;105585;1299;62463;-79
2023/07/27 01:47:45;;;;;;;15.80;10.80;;;;;;;20.07;100.00;99868.10;105584;1299;61013;-79
2023/07/27 01:50:13;;;;;;;18.30;10.80;;;;;;;20.08;100.00;99873.66;105454;1299;75075;-79
2023/07/27 01:52:40;;;;;;;20.10;11.20;;;;;;;20.07;100.00;99878.09;105625;1299;74417;-78
2023/07/27 01:55:07;;;;;;;20.30;10.90;;;;;;;20.07;100.00;99879.95;105596;1299;73712;-78
2023/07/27 01:57:35;;;;;;;17.20;10.60;;;;;;;20.06;100.00;99880.41;105398;1299;61687;-78
2023/07/27 02:00:01;;;;;;;20.70;10.40;;;;;;;20.04;100.00;99876.60;105639;1293;61118;-78
2023/07/27 02:02:27;;;;;;;17.70;11.00;;;;;;;20.00;100.00;99878.33;106464;1287;59218;-79
2023/07/27 02:04:57;;;;;;;17.70;11.50;;;;;;;19.95;100.00;99881.62;106501;1287;59888;-78
2023/07/27 02:07:23;;;;;;;21.80;11.10;;;;;;;19.92;100.00;99891.06;106436;1287;73390;-78
2023/07/27 02:09:48;;;;;;;20.40;11.60;;;;;;;19.90;100.00;99892.92;106864;1279;59146;-79
2023/07/27 02:15:47;;;;;;;21.10;11.70;;;;;;;19.85;100.00;99891.84;106404;1288;74502;-78
2023/07/27 02:18:18;;;;;;;21.70;11.50;;;;;;;19.87;100.00;99894.47;106407;1288;74300;-79
2023/07/27 02:20:44;;;;;;;22.80;11.50;;;;;;;19.88;100.00;99893.80;106411;1288;72516;-78
2023/07/27 02:23:11;;;;;;;20.00;11.20;;;;;;;19.88;100.00;99895.14;106245;1288;59006;-78
2023/07/27 02:25:37;;;;;;;19.20;11.40;;;;;;;19.88;100.00;99900.31;106297;1288;59280;-78
2023/07/27 02:28:02;;;;;;;19.00;10.70;;;;;;;19.88;100.00;99912.79;106374;1288;59154;-78
2023/07/27 02:30:28;;;;;;;18.30;10.50;;;;;;;19.91;100.00;99919.16;106488;1288;59105;-78
2023/07/27 02:32:53;;;;;;;18.20;11.10;;;;;;;19.93;100.00;99925.95;106504;1287;59944;-78
2023/07/27 02:35:20;;;;;;;20.20;11.00;;;;;;;19.97;100.00;99931.77;106476;1287;59043;-78
2023/07/27 02:37:45;;;;;;;20.60;11.30;;;;;;;20.01;100.00;99927.61;106268;1288;75332;-79
2023/07/27 02:40:11;;;;;;;20.60;11.80;;;;;;;20.03;100.00;99927.97;106496;1287;59212;-79
2023/07/27 02:42:36;;;;;;;18.70;11.10;;;;;;;20.08;100.00;99929.80;106482;1287;59087;-78
2023/07/27 02:45:02;;;;;;;19.50;11.50;;;;;;;20.16;100.00;99936.86;106527;1287;59140;-78
2023/07/27 02:47:28;;;;;;;18.30;11.20;;;;;;;20.23;100.00;99941.09;106547;1287;58966;-78
2023/07/27 02:49:53;;;;;;;19.70;11.40;;;;;;;20.29;100.00;99948.86;106497;1287;73368;-79
2023/07/27 02:52:18;;;;;;;15.70;10.10;;;;;;;20.34;100.00;99952.86;106833;1279;59287;-79
2023/07/27 02:54:44;;;;;;;19.70;11.30;;;;;;;20.38;100.00;99955.03;107392;1279;59336;-79
2023/07/27 02:57:09;;;;;;;17.00;11.10;;;;;;;20.45;100.00;99951.64;107371;1279;59069;-78
2023/07/27 02:59:35;;;;;;;18.30;11.00;;;;;;;20.56;100.00;99943.73;107135;1279;59141;-78
2023/07/27 03:02:00;;;;;;;18.80;11.40;;;;;;;20.67;100.00;99939.13;107364;1279;59048;-78
2023/07/27 03:04:26;;;;;;;24.30;12.60;;;;;;;20.78;100.00;99935.55;107353;1279;59068;-79
2023/07/27 03:06:51;;;;;;;20.10;12.20;;;;;;;20.84;100.00;99934.27;107396;1279;59308;-79
2023/07/27 03:09:17;;;;;;;20.80;12.50;;;;;;;20.92;100.00;99926.13;107027;1279;59093;-79
2023/07/27 03:11:42;;;;;;;22.30;12.30;;;;;;;20.96;100.00;99925.30;107430;1279;59135;-79
2023/07/27 03:14:08;;;;;;;20.30;11.60;;;;;;;21.03;100.00;99927.38;107404;1279;59371;-79
2023/07/27 03:19:56;;;;;;;20.90;11.20;;;;;;;21.44;100.00;99933.70;107368;1279;72930;-79
2023/07/27 03:25:43;;;;;;;28.30;12.60;;;;;;;22.02;100.00;99931.02;107394;1279;71438;-80
2023/07/27 03:28:08;;;;;;;20.10;11.90;;;;;;;22.30;100.00;99926.54;107367;1279;59088;-80
2023/07/27 03:30:35;;;;;;;27.40;12.40;;;;;;;22.62;100.00;99914.51;107123;1279;59156;-79
2023/07/27 03:33:05;;;;;;;23.70;12.20;;;;;;;22.90;100.00;99910.56;107353;1282;59052;-80
2023/07/27 03:35:32;;;;;;;36.90;12.90;;;;;;;23.00;100.00;99908.06;107417;1279;74696;-80
2023/07/27 03:37:57;;;;;;;28.80;12.70;;;;;;;23.16;100.00;99911.45;107458;1279;73428;-80
2023/07/27 03:40:23;;;;;;;25.00;12.60;;;;;;;23.21;100.00;99915.17;107225;1278;59176;-80
2023/07/27 03:42:49;;;;;;;24.00;11.70;;;;;;;23.32;100.00;99910.76;107219;1279;59084;-79
2023/07/27 03:45:15;;;;;;;26.50;13.00;;;;;;;23.54;100.00;99905.52;107525;1279;59089;-78
2023/07/27 03:47:44;;;;;;;22.80;12.80;;;;;;;23.66;100.00;99904.64;107468;1279;59104;-80
2023/07/27 03:50:11;;;;;;;20.90;11.80;;;;;;;24.03;100.00;99906.82;107501;1279;58955;-80
2023/07/27 03:52:36;;;;;;;29.90;12.90;;;;;;;24.52;100.00;99904.23;107479;1279;59286;-80
2023/07/27 03:55:03;;;;;;;21.70;11.30;;;;;;;24.84;100.00;99903.42;107530;1278;59032;-81
2023/07/27 03:57:28;;;;;;;20.60;12.30;;;;;;;25.20;100.00;99900.98;106981;1280;59085;-80
2023/07/27 03:59:55;;;;;;;24.50;11.40;;;;;;;25.51;100.00;99902.84;107533;1279;59168;-80
2023/07/27 04:05:43;;;;;;;20.90;11.10;;;;;;;26.16;100.00;99902.45;107475;1278;61762;-80
2023/07/27 04:08:10;;;;;;;20.80;11.20;;;;;;;26.51;100.00;99899.96;107552;1279;59217;-81
2023/07/27 04:10:36;;;;;;;27.50;11.30;;;;;;;26.95;100.00;99896.66;107519;1279;59048;-80
2023/07/27 04:13:01;;;;;;;18.50;10.40;;;;;;;27.35;100.00;99896.92;107498;1278;59018;-80
2023/07/27 04:15:27;;;;;;;19.30;10.10;;;;;;;27.57;100.00;99892.63;107498;1278;59179;-81
2023/07/27 04:17:52;;;;;;;17.20;10.30;;;;;;;27.96;100.00;99890.33;107496;1278;58943;-80
2023/07/27 04:20:18;;;;;;;17.20;9.90;;;;;;;28.15;100.00;99885.02;107544;1278;59050;-81
2023/07/27 04:22:43;;;;;;;23.60;10.60;;;;;;;28.24;100.00;99884.15;107510;1279;74301;-81
2023/07/27 04:25:09;;;;;;;20.00;11.00;;;;;;;28.76;100.00;99882.09;107255;1278;59464;-80
2023/07/27 04:30:56;;;;;;;27.40;11.30;;;;;;;29.29;100.00;99879.28;107481;1279;60034;-81
2023/07/27 04:33:22;;;;;;;20.90;10.80;;;;;;;29.47;100.00;99871.57;107546;1278;59146;-81
2023/07/27 04:35:47;;;;;;;21.00;11.20;;;;;;;29.69;100.00;99869.93;107491;1279;59177;-81
2023/07/27 04:38:13;;;;;;;19.30;11.50;;;;;;;30.03;99.80;99869.74;107531;1278;59060;-81
2023/07/27 04:40:38;;;;;;;20.90;11.80;;;;;;;30.29;98.91;99874.77;107537;1278;58961;-80
2023/07/27 04:43:04;;;;;;;22.70;12.20;;;;;;;30.58;95.78;99879.09;107504;1278;75437;-81
2023/07/27 04:45:30;;;;;;;23.30;11.80;;;;;;;30.66;92.26;99873.76;107484;1279;59375;-81
2023/07/27 04:47:55;;;;;;;23.70;12.50;;;;;;;30.84;92.24;99866.58;107482;1279;59028;-81
2023/07/27 04:50:21;;;;;;;18.30;11.10;;;;;;;31.01;88.85;99868.92;107494;1278;59030;-81
2023/07/27 04:52:46;;;;;;;28.20;12.10;;;;;;;31.18;89.84;99874.52;107530;1278;59016;-81
2023/07/27 04:55:12;;;;;;;21.90;13.30;;;;;;;31.67;87.44;99881.17;107552;1279;59120;-81
2023/07/27 04:57:37;;;;;;;29.30;13.10;;;;;;;32.17;85.36;99880.84;107484;1279;59061;-81
2023/07/27 05:00:03;;;;;;;26.70;15.20;;;;;;;32.69;82.08;99880.80;107487;1279;58997;-81
2023/07/27 05:02:29;;;;;;;32.70;13.70;;;;;;;33.14;81.66;99880.77;107126;1278;59005;-81
2023/07/27 05:04:54;;;;;;;28.80;13.60;;;;;;;33.74;77.41;99882.94;107491;1279;59435;-82
2023/07/27 05:07:20;;;;;;;23.10;12.20;;;;;;;34.15;73.68;99877.88;107174;1278;59121;-81
2023/07/27 05:09:46;;;;;;;27.30;12.40;;;;;;;34.31;71.14;99870.34;107008;1283;60178;-81
2023/07/27 05:12:11;;;;;;;20.80;12.40;;;;;;;34.49;68.02;99858.51;107555;1279;59482;-81
2023/07/27 05:14:37;;;;;;;20.90;12.60;;;;;;;34.38;66.34;99856.02;107542;1279;59003;-81
2023/07/27 05:17:02;;;;;;;17.50;12.50;;;;;;;34.26;67.05;99853.46;107509;1279;59088;-82
2023/07/27 05:19:28;;;;;;;21.50;12.90;;;;;;;34.58;66.38;99851.80;107526;1279;59029;-82
2023/07/27 05:21:53;;;;;;;20.90;12.70;;;;;;;34.83;64.96;99849.52;107504;1278;61036;-82
2023/07/27 05:27:40;;;;;;;25.70;13.20;;;;;;;35.29;63.31;99837.80;107487;1279;72169;-82
2023/07/27 05:30:06;;;;;;;26.20;12.40;;;;;;;35.61;62.80;99833.93;107027;1278;59236;-82
2023/07/27 05:32:32;;;;;;;20.40;12.20;;;;;;;36.29;62.10;99830.94;107482;1279;59018;-83
2023/07/27 05:34:57;;;;;;;18.30;11.50;;;;;;;36.70;58.97;99837.00;107514;1278;59065;-83
2023/07/27 05:37:23;;;;;;;21.20;12.40;;;;;;;37.17;58.24;99827.75;107512;1279;59141;-83
2023/07/27 05:39:48;;;;;;;22.80;13.00;;;;;;;37.26;55.87;99821.00;107575;1278;59024;-82
2023/07/27 05:42:14;;;;;;;19.50;11.50;;;;;;;37.16;56.35;99817.86;107531;1279;59051;-83
2023/07/27 05:44:39;;;;;;;19.30;12.60;;;;;;;37.41;55.59;99815.91;107516;1278;59083;-82
2023/07/27 05:47:05;;;;;;;16.30;11.40;;;;;;;37.58;54.24;99814.42;107529;1279;59470;-83
2023/07/27 05:49:31;;;;;;;18.20;12.20;;;;;;;37.46;53.90;99819.23;107553;1278;59015;-82
2023/07/27 05:51:57;;;;;;;24.00;13.30;;;;;;;37.39;54.39;99817.96;107537;1279;59118;-83
2023/07/27 05:54:22;;;;;;;19.00;12.60;;;;;;;37.64;54.68;99817.30;107562;1278;61065;-83
2023/07/27 05:56:48;;;;;;;25.00;12.70;;;;;;;37.73;53.27;99818.05;107578;1279;59401;-82
2023/07/27 05:59:14;;;;;;;19.20;12.60;;;;;;;37.78;53.19;99819.55;107550;1279;59045;-83
2023/07/27 06:01:39;;;;;;;21.70;12.50;;;;;;;38.00;52.66;99812.29;107498;1279;59350;-83
2023/07/27 06:04:06;;;;;;;18.40;11.80;;;;;;;38.54;53.78;99812.80;107531;1279;59031;-83
2023/07/27 06:06:32;;;;;;;17.60;11.50;;;;;;;39.61;51.98;99809.73;107595;1278;59085;-83
2023/07/27 06:08:57;;;;;;;17.40;10.30;;;;;;;40.40;49.58;99805.92;107532;1278;74539;-82
2023/07/27 06:11:23;;;;;;;20.90;11.00;;;;;;;41.21;46.21;99809.73;107534;1278;59055;-83
2023/07/27 06:13:48;;;;;;;21.50;11.70;;;;;;;41.77;44.08;99812.06;107483;1279;58966;-83
2023/07/27 06:16:15;;;;;;;23.80;11.80;;;;;;;42.16;43.23;99812.76;107130;1279;59164;-84
2023/07/27 06:18:41;;;;;;;25.80;11.20;;;;;;;42.61;41.74;99815.97;107515;1279;59082;-82
2023/07/27 06:24:28;;;;;;;23.00;12.20;;;;;;;43.14;39.58;99811.80;107502;1279;59013;-83
2023/07/27 06:26:53;;;;;;;19.00;11.20;;;;;;;42.75;39.32;99806.25;107129;1278;59114;-84
2023/07/27 06:29:19;;;;;;;27.30;12.00;;;;;;;43.04;40.21;99807.89;107418;1280;59239;-84
2023/07/27 06:31:44;;;;;;;24.80;13.20;;;;;;;43.54;38.55;99812.31;107516;1278;59195;-84
2023/07/27 06:34:10;;;;;;;23.10;13.30;;;;;;;43.79;37.53;99807.98;107521;1278;58984;-84
2023/07/27 06:36:36;;;;;;;23.40;13.60;;;;;;;43.96;36.92;99799.96;107460;1279;60116;-83
2023/07/27 06:39:01;;;;;;;31.40;14.00;;;;;;;44.30;36.89;99798.73;107514;1279;59034;-84
2023/07/27 06:41:27;;;;;;;27.90;12.80;;;;;;;44.44;35.69;99797.58;107544;1278;59180;-84
2023/07/27 06:43:52;;;;;;;24.10;12.70;;;;;;;44.54;35.31;99794.17;107468;1279;59409;-82
2023/07/27 06:46:19;;;;;;;30.80;13.60;;;;;;;44.47;35.50;99790.08;107115;1280;58937;-82
2023/07/27 06:48:48;;;;;;;25.20;12.80;;;;;;;44.68;35.36;99787.20;107544;1279;66490;-82
2023/07/27 06:51:14;;;;;;;24.30;13.60;;;;;;;44.84;34.91;99784.30;107528;1279;65720;-82
2023/07/27 06:53:39;;;;;;;24.20;12.10;;;;;;;45.07;34.46;99785.00;107524;1278;59044;-82
2023/07/27 06:56:05;;;;;;;22.80;11.30;;;;;;;45.05;34.40;99781.55;107121;1278;59043;-82
2023/07/27 06:58:31;;;;;;;22.40;11.20;;;;;;;45.42;34.42;99789.67;107515;1279;59066;-83
2023/07/27 07:00:57;;;;;;;21.30;10.10;;;;;;;45.82;33.96;99791.02;107054;1279;59382;-81
2023/07/27 07:03:22;;;;;;;20.20;12.00;;;;;;;46.04;33.01;99792.64;107386;1280;59100;-83
2023/07/27 07:05:48;;;;;;;20.90;9.40;;;;;;;46.19;32.63;99794.05;107059;1280;59056;-81
2023/07/27 07:08:13;;;;;;;14.30;9.00;;;;;;;46.39;31.92;99791.34;107507;1279;59078;-82
2023/07/27 07:10:39;;;;;;;17.10;8.10;;;;;;;46.05;32.01;99791.85;107510;1279;59119;-83
2023/07/27 07:13:04;;;;;;;19.50;8.20;;;;;;;46.08;31.83;99783.66;107519;1279;59120;-83
2023/07/27 07:15:30;;;;;;;19.10;8.10;;;;;;;46.21;31.94;99777.10;107533;1278;59079;-83
2023/07/27 07:17:56;;;;;;;14.40;7.90;;;;;;;46.49;32.07;99777.05;107497;1279;58856;-83
2023/07/27 07:20:21;;;;;;;13.80;8.50;;;;;;;46.83;30.90;99778.98;107127;1278;59291;-82
2023/07/27 07:22:47;;;;;;;13.50;8.10;;;;;;;46.63;31.12;99780.89;107358;1279;59060;-82
2023/07/27 07:25:12;;;;;;;13.70;8.60;;;;;;;46.71;31.23;99778.83;107510;1278;59128;-83
2023/07/27 07:27:38;;;;;;;13.40;8.70;;;;;;;46.84;31.11;99780.10;107088;1279;59230;-81
2023/07/27 07:30:04;;;;;;;15.40;8.40;;;;;;;46.97;30.59;99785.05;107517;1279;66848;-82
2023/07/27 07:32:31;;;;;;;13.40;8.90;;;;;;;46.89;30.15;99784.25;107027;1279;59518;-84
2023/07/27 07:34:57;;;;;;;13.90;8.30;;;;;;;46.56;30.39;99782.77;107499;1279;63798;-84
2023/07/27 07:37:23;;;;;;;14.50;9.00;;;;;;;46.42;30.51;99775.93;107517;1278;58977;-85
2023/07/27 07:43:10;;;;;;;10.60;8.60;;;;;;;46.48;30.65;99775.20;107487;1279;65764;-82
2023/07/27 07:45:36;;;;;;;15.30;9.20;;;;;;;46.51;30.27;99775.29;107529;1279;59056;-82
2023/07/27 07:48:02;;;;;;;13.80;8.80;;;;;;;46.55;30.30;99771.78;107488;1279;58935;-82
2023/07/27 07:50:27;;;;;;;15.60;9.40;;;;;;;46.64;30.55;99766.85;107340;1280;59062;-84
2023/07/27 07:52:53;;;;;;;14.60;9.30;;;;;;;46.76;30.29;99763.64;107513;1278;58995;-81
2023/07/27 07:55:18;;;;;;;13.60;9.40;;;;;;;46.60;29.70;99758.11;107553;1279;59193;-80
2023/07/27 07:57:44;;;;;;;12.80;9.00;;;;;;;46.25;29.80;99758.31;107496;1278;58972;-82
2023/07/27 08:00:10;;;;;;;16.20;9.70;;;;;;;46.16;30.36;99750.59;107525;1279;59104;-82
2023/07/27 08:02:35;;;;;;;17.40;8.80;;;;;;;46.42;30.65;99747.98;107186;1278;59144;-82
2023/07/27 08:05:01;;;;;;;14.70;8.70;;;;;;;46.71;30.14;99750.45;107543;1279;59293;-83
2023/07/27 08:07:26;;;;;;;19.90;9.00;;;;;;;46.69;30.56;99745.33;107581;1278;59042;-83
2023/07/27 08:09:52;;;;;;;17.10;9.10;;;;;;;46.94;30.10;99748.77;107059;1283;59053;-83
2023/07/27 08:12:18;;;;;;;17.60;9.10;;;;;;;47.15;29.56;99755.90;107536;1279;58951;-82
2023/07/27 08:14:43;;;;;;;12.70;9.40;;;;;;;46.97;29.90;99752.80;107079;1278;59155;-82
2023/07/27 08:17:09;;;;;;;18.00;8.70;;;;;;;47.09;29.89;99754.45;107501;1279;59356;-81
2023/07/27 08:19:34;;;;;;;22.20;9.00;;;;;;;47.05;29.65;99753.44;107546;1278;59077;-82
2023/07/27 08:22:00;;;;;;;16.60;9.10;;;;;;;46.83;29.98;99750.60;107393;1280;61133;-82
2023/07/27 08:24:25;;;;;;;15.50;9.20;;;;;;;46.91;30.05;99744.60;107153;1278;59139;-82
2023/07/27 08:26:51;;;;;;;15.50;9.60;;;;;;;46.87;29.57;99743.66;107495;1279;59116;-82
2023/07/27 08:29:16;;;;;;;16.30;8.60;;;;;;;46.64;29.84;99747.23;107520;1278;59132;-82
2023/07/27 08:31:42;;;;;;;17.90;9.50;;;;;;;46.52;29.95;99745.88;107551;1278;59333;-81
2023/07/27 08:34:07;;;;;;;16.70;9.00;;;;;;;46.63;30.08;99745.48;107524;1279;65645;-84
2023/07/27 08:36:33;;;;;;;17.20;8.80;;;;;;;46.70;30.02;99742.79;107544;1279;59113;-84
2023/07/27 08:38:59;;;;;;;23.40;10.40;;;;;;;46.60;29.56;99738.98;107485;1279;59169;-80
2023/07/27 08:41:25;;;;;;;18.80;10.10;;;;;;;46.33;29.92;99738.83;107496;1279;59046;-81
2023/07/27 08:43:51;;;;;;;15.00;9.80;;;;;;;46.27;29.93;99738.45;107557;1279;59077;-81
2023/07/27 08:46:18;;;;;;;22.80;10.60;;;;;;;46.26;30.25;99744.38;107519;1279;59386;-80
2023/07/27 08:48:45;;;;;;;20.80;11.00;;;;;;;46.31;30.18;99741.74;106829;1278;59152;-82
2023/07/27 08:51:11;;;;;;;17.30;10.90;;;;;;;46.26;30.50;99742.98;107148;1278;59263;-81
2023/07/27 08:53:36;;;;;;;27.50;10.70;;;;;;;46.25;30.37;99743.13;107528;1279;59055;-81
2023/07/27 08:56:02;;;;;;;16.10;9.70;;;;;;;46.42;30.54;99747.54;107206;1279;59077;-81
2023/07/27 08:58:28;;;;;;;15.80;8.90;;;;;;;46.35;30.16;99745.61;107521;1278;66473;-82
2023/07/27 09:00:54;;;;;;;15.50;8.20;;;;;;;46.38;30.37;99738.23;107494;1279;59023;-83
2023/07/27 09:03:19;;;;;;;15.60;8.50;;;;;;;46.39;30.30;99746.63;107554;1279;59030;-81
2023/07/27 09:05:57;;;;;;;12.80;8.10;;;;;;;46.46;30.27;99741.63;107131;1278;59114;-81
2023/07/27 09:08:22;;;;;;;15.50;8.80;;;;;;;45.91;30.22;99731.72;107544;1279;65875;-81
2023/07/27 09:10:48;;;;;;;14.30;7.50;;;;;;;45.14;30.51;99725.20;107416;1282;59353;-82
2023/07/27 09:13:13;;;;;;;13.70;8.00;;;;;;;44.49;31.20;99728.77;107552;1279;59038;-80
2023/07/27 09:15:45;;;;;;;15.20;8.20;;;;;;;43.19;32.32;99725.98;107239;1279;59071;-82
2023/07/27 09:18:12;;;;;;;11.00;8.00;;;;;;;42.30;33.25;99728.29;107545;1279;60125;-83
2023/07/27 09:20:42;;;;;;;18.70;8.20;;;;;;;41.88;34.03;99720.61;107509;1279;75506;-82
2023/07/27 09:23:08;;;;;;;13.80;7.40;;;;;;;41.79;34.57;99716.73;107536;1279;74746;-83
2023/07/27 09:25:33;;;;;;;18.10;8.10;;;;;;;42.22;34.38;99709.11;107510;1279;59016;-82
2023/07/27 09:27:59;;;;;;;17.20;8.50;;;;;;;42.13;34.97;99703.94;107544;1279;59040;-83
2023/07/27 09:30:25;;;;;;;16.40;8.60;;;;;;;42.44;34.77;99694.90;107398;1278;59056;-82
2023/07/27 09:32:52;;;;;;;15.30;7.90;;;;;;;42.43;34.69;99692.00;107502;1279;59086;-80
2023/07/27 09:35:20;;;;;;;12.80;7.20;;;;;;;42.50;35.06;99695.36;107351;1278;59134;-80
2023/07/27 09:37:51;;;;;;;14.80;7.50;;;;;;;42.73;34.75;99690.45;107528;1279;59540;-80
2023/07/27 09:40:23;;;;;;;16.00;7.20;;;;;;;42.64;34.54;99685.72;107506;1278;60202;-80
2023/07/27 09:42:49;;;;;;;16.10;7.50;;;;;;;42.10;35.18;99673.83;107502;1278;59988;-80
2023/07/27 09:45:14;;;;;;;12.60;7.50;;;;;;;41.76;35.58;99675.02;107501;1279;58985;-83
2023/07/27 09:47:41;;;;;;;14.10;7.60;;;;;;;41.48;35.90;99672.13;107516;1279;59060;-83
2023/07/27 09:50:10;;;;;;;9.30;6.60;;;;;;;41.31;36.51;99666.35;107508;1279;59110;-83
2023/07/27 09:52:38;;;;;;;12.20;6.20;;;;;;;41.61;36.66;99657.57;107090;1279;61124;-81
2023/07/27 09:55:04;;;;;;;14.80;7.10;;;;;;;41.94;35.71;99658.25;107492;1279;59957;-84
2023/07/27 09:57:30;;;;;;;13.20;7.20;;;;;;;41.93;35.34;99650.41;107557;1279;59030;-80
2023/07/27 09:59:56;;;;;;;15.10;7.30;;;;;;;41.80;35.85;99650.14;107516;1279;59073;-83
2023/07/27 10:02:22;;;;;;;11.00;7.50;;;;;;;41.91;35.85;99642.45;107492;1279;58964;-84
2023/07/27 10:04:51;;;;;;;16.90;7.60;;;;;;;41.91;35.60;99636.39;107502;1278;58933;-84
2023/07/27 10:07:19;;;;;;;19.30;7.20;;;;;;;41.79;35.33;99628.22;107473;1280;61159;-82
2023/07/27 10:09:46;;;;;;;15.00;7.30;;;;;;;41.38;35.03;99629.73;107484;1279;75707;-82
2023/07/27 10:12:24;;;;;;;13.20;6.30;;;;;;;41.02;35.49;99630.14;107515;1278;73341;-80
2023/07/27 10:14:50;;;;;;;15.60;7.30;;;;;;;40.63;35.64;99622.23;107531;1278;73572;-83
2023/07/27 10:17:15;;;;;;;13.80;6.80;;;;;;;40.36;36.91;99616.54;107422;1280;59373;-80
2023/07/27 10:19:45;;;;;;;11.90;6.40;;;;;;;40.35;36.83;99603.85;107682;1280;59055;-80
2023/07/27 10:22:16;;;;;;;11.60;5.50;;;;;;;40.29;37.43;99600.26;107164;1278;74371;-82
2023/07/27 10:24:46;;;;;;;11.30;5.70;;;;;;;40.15;36.93;99596.26;107560;1278;74219;-83
2023/07/27 10:27:11;;;;;;;9.80;5.10;;;;;;;39.64;37.67;99587.89;107482;1278;71917;-82
2023/07/27 10:29:37;;;;;;;9.20;5.80;;;;;;;39.53;38.47;99586.85;107398;1280;58993;-83
2023/07/27 10:32:05;;;;;;;13.70;5.70;;;;;;;39.49;37.98;99596.67;107507;1279;60034;-83
2023/07/27 10:34:33;;;;;;;12.90;5.90;;;;;;;39.16;38.48;99603.59;107148;1280;59493;-82
2023/07/27 10:37:05;;;;;;;14.90;5.50;;;;;;;39.24;38.58;99603.96;107520;1279;74395;-82
2023/07/27 10:39:35;;;;;;;11.10;6.00;;;;;;;39.56;39.15;99605.88;107508;1279;73392;-83
2023/07/27 10:42:05;;;;;;;11.00;5.60;;;;;;;39.95;39.02;99602.91;107504;1278;61139;-82
2023/07/27 10:44:41;;;;;;;9.80;5.60;;;;;;;40.07;38.19;99584.37;107517;1279;60136;-82
2023/07/27 10:47:08;;;;;;;11.90;6.00;;;;;;;39.92;38.08;99576.39;107472;1279;75638;-82
2023/07/27 10:49:45;;;;;;;8.60;5.70;;;;;;;39.97;38.11;99572.98;107538;1278;74513;-82
2023/07/27 10:52:15;;;;;;;11.20;6.50;;;;;;;39.95;37.75;99576.83;107509;1279;73443;-82
2023/07/27 10:54:42;;;;;;;10.50;5.80;;;;;;;39.93;38.52;99583.11;107509;1278;60083;-83
2023/07/27 10:57:09;;;;;;;11.70;6.00;;;;;;;39.96;38.25;99578.61;107502;1279;59103;-83
2023/07/27 10:59:46;;;;;;;15.80;6.00;;;;;;;39.91;37.95;99575.85;107134;1278;75047;-82
2023/07/27 11:02:20;;;;;;;13.50;5.60;;;;;;;39.63;38.09;99581.89;107070;1280;72272;-81
2023/07/27 11:04:48;;;;;;;10.90;5.40;;;;;;;39.53;37.70;99583.98;107373;1280;73242;-82
2023/07/27 11:07:28;;;;;;;12.90;5.30;;;;;;;39.52;37.88;99581.09;107473;1279;60162;-83
2023/07/27 11:09:54;;;;;;;12.10;5.50;;;;;;;39.81;37.59;99582.95;107388;1279;61142;-82
2023/07/27 11:12:20;;;;;;;15.20;5.60;;;;;;;40.03;37.00;99588.67;107492;1278;59057;-81
2023/07/27 11:14:46;;;;;;;17.20;6.50;;;;;;;40.17;37.24;99591.73;107531;1279;59095;-82
2023/07/27 11:17:11;;;;;;;14.10;5.80;;;;;;;40.50;37.34;99588.84;107348;1279;59424;-82
2023/07/27 11:19:37;;;;;;;16.40;5.50;;;;;;;40.77;36.74;99589.72;107499;1279;58973;-82
2023/07/27 11:22:04;;;;;;;13.10;5.30;;;;;;;40.91;35.92;99592.05;107093;1279;59877;-81
2023/07/27 11:24:31;;;;;;;13.10;5.40;;;;;;;41.09;35.36;99597.13;107523;1279;74130;-81
2023/07/27 11:26:57;;;;;;;12.80;5.10;;;;;;;41.02;34.69;99595.80;107505;1278;73695;-81
2023/07/27 11:29:23;;;;;;;10.90;4.90;;;;;;;40.80;33.67;99595.15;107395;1280;59034;-82
2023/07/27 11:31:53;;;;;;;11.50;4.90;;;;;;;40.81;34.20;99594.55;107513;1279;59036;-82
2023/07/27 11:34:22;;;;;;;10.80;5.20;;;;;;;41.18;35.00;99592.67;107118;1279;75220;-82
2023/07/27 11:36:59;;;;;;;10.20;5.00;;;;;;;41.54;34.62;99592.47;107520;1279;74261;-84
2023/07/27 11:39:26;;;;;;;11.30;4.70;;;;;;;41.65;34.00;99596.08;107510;1279;72328;-83